createdAt,value
2022-10-13T00:01:43.388Z,101427.97
2022-10-13T00:06:45.058Z,101421.06
2022-10-13T00:11:47.210Z,101415.06
2022-10-13T00:16:48.917Z,101415.88
2022-10-13T00:21:50.559Z,101408.94
2022-10-13T00:26:52.498Z,101407.22
2022-10-13T00:31:54.150Z,101397.75
2022-10-13T00:36:55.781Z,101403.94
2022-10-13T00:41:58.463Z,101401.34
2022-10-13T00:47:00.089Z,101399.63
2022-10-13T00:52:01.695Z,101390.06
2022-10-13T00:57:03.879Z,101386.47
2022-10-13T01:02:05.529Z,101382.00
2022-10-13T01:07:07.277Z,101389.59
2022-10-13T01:12:30.128Z,101391.91
2022-10-13T01:18:09.535Z,101385.66
2022-10-13T01:23:38.443Z,101382.91
2022-10-13T01:28:59.609Z,101377.63
2022-10-13T01:34:10.098Z,101373.97
2022-10-13T01:39:43.424Z,101369.63
2022-10-13T01:44:48.352Z,101366.09
2022-10-13T01:49:50.689Z,101361.63
2022-10-13T01:54:52.539Z,101352.97
2022-10-13T01:59:54.155Z,101348.63
2022-10-13T02:05:19.177Z,101349.47
2022-10-13T02:10:27.412Z,101349.47
2022-10-13T02:15:31.412Z,101345.16
2022-10-13T02:20:35.118Z,101339.13
2022-10-13T02:25:36.793Z,101334.16
2022-10-13T02:30:39.364Z,101330.00
2022-10-13T02:35:41.600Z,101313.81
2022-10-13T02:40:43.224Z,101304.41
2022-10-13T02:45:44.849Z,101303.66
2022-10-13T02:50:47.501Z,101304.53
2022-10-13T02:55:49.134Z,101308.88
2022-10-13T03:00:50.845Z,101299.38
2022-10-13T03:05:52.490Z,101303.72
2022-10-13T03:10:56.154Z,101302.97
2022-10-13T03:15:57.774Z,101313.56
2022-10-13T03:21:00.935Z,101299.81
2022-10-13T03:26:02.753Z,101305.25
2022-10-13T03:31:06.191Z,101300.41
2022-10-13T03:36:08.091Z,101300.72
2022-10-13T03:41:11.456Z,101294.88
2022-10-13T03:46:14.051Z,101300.28
2022-10-13T03:51:19.952Z,101295.25
2022-10-13T03:56:25.502Z,101292.84
2022-10-13T04:01:28.771Z,101296.47
2022-10-13T04:06:31.285Z,101295.88
2022-10-13T04:11:32.923Z,101287.69
2022-10-13T04:16:34.876Z,101286.22
2022-10-13T04:21:36.746Z,101285.59
2022-10-13T04:26:38.360Z,101287.50
2022-10-13T04:31:43.793Z,101294.44
2022-10-13T04:36:45.523Z,101291.97
2022-10-13T04:41:47.137Z,101285.22
2022-10-13T04:46:48.781Z,101279.41
2022-10-13T04:51:50.571Z,101276.06
2022-10-13T04:56:52.190Z,101278.88
2022-10-13T05:01:53.843Z,101272.97
2022-10-13T05:07:18.916Z,101278.44
2022-10-13T05:12:17.836Z,101264.75
2022-10-13T05:17:19.701Z,101258.00
2022-10-13T05:22:21.729Z,101258.16
2022-10-13T05:27:24.597Z,101259.03
2022-10-13T05:32:26.259Z,101265.13
2022-10-13T05:37:27.897Z,101259.13
2022-10-13T05:42:29.855Z,101253.09
2022-10-13T05:47:31.498Z,101250.50
2022-10-13T05:52:33.387Z,101251.38
2022-10-13T05:57:41.102Z,101254.03
2022-10-13T06:02:55.095Z,101254.94
2022-10-13T06:07:56.729Z,101232.47
2022-10-13T06:12:58.389Z,101230.78
2022-10-13T06:18:00.067Z,101240.34
2022-10-13T06:23:01.682Z,101228.31
2022-10-13T06:28:03.423Z,101222.31
2022-10-13T06:33:05.166Z,101225.03
2022-10-13T06:38:09.202Z,101215.63
2022-10-13T06:43:11.572Z,101223.59
2022-10-13T06:48:16.138Z,101224.66
2022-10-13T06:53:17.931Z,101224.84
2022-10-13T06:58:19.554Z,101231.19
2022-10-13T07:03:21.229Z,101234.91
2022-10-13T07:08:23.071Z,101229.06
2022-10-13T07:13:24.726Z,101226.69
2022-10-13T07:18:27.101Z,101231.25
2022-10-13T07:23:28.733Z,101225.31
2022-10-13T07:28:30.435Z,101219.41
2022-10-13T07:33:32.074Z,101213.47
2022-10-13T07:38:33.732Z,101212.78
2022-10-13T07:43:35.369Z,101217.34
2022-10-13T07:48:39.567Z,101225.31
2022-10-13T07:53:41.852Z,101220.28
2022-10-13T07:58:45.232Z,101214.34
2022-10-13T08:03:50.079Z,101218.81
2022-10-13T08:08:53.300Z,101224.13
2022-10-13T08:13:55.983Z,101229.41
2022-10-13T08:18:58.358Z,101213.84
2022-10-13T08:23:59.972Z,101212.25
2022-10-13T08:29:21.771Z,101210.66
2022-10-13T08:34:23.726Z,101202.16
2022-10-13T08:39:25.414Z,101209.34
2022-10-13T08:50:07.725Z,101200.22
2022-10-13T08:55:28.643Z,101198.59
2022-10-13T09:00:30.293Z,101183.09
2022-10-13T09:05:37.720Z,101164.84
2022-10-13T09:10:57.632Z,101169.34
2022-10-13T09:16:00.800Z,101171.13
2022-10-13T09:21:19.894Z,101179.06
2022-10-13T09:26:24.218Z,101166.03
2022-10-13T09:31:27.732Z,101159.94
2022-10-13T09:36:30.663Z,101166.06
2022-10-13T09:41:32.392Z,101176.56
2022-10-13T09:46:51.762Z,101176.53
2022-10-13T09:52:05.120Z,101166.97
2022-10-13T09:57:25.396Z,101167.81
2022-10-13T10:02:59.044Z,101178.31
2022-10-13T10:08:06.240Z,101185.31
2022-10-13T10:13:12.540Z,101180.94
2022-10-13T10:18:20.389Z,101180.06
2022-10-13T10:23:34.373Z,101171.28
2022-10-13T10:28:48.220Z,101162.50
2022-10-13T10:34:08.210Z,101168.59
2022-10-13T10:39:23.327Z,101162.47
2022-10-13T10:44:47.994Z,101158.03
2022-10-13T10:49:50.152Z,101155.34
2022-10-13T10:54:57.225Z,101136.84
2022-10-13T11:00:04.942Z,101120.06
2022-10-13T11:05:06.762Z,101126.16
2022-10-13T11:10:16.315Z,101119.91
2022-10-13T11:15:28.777Z,101113.72
2022-10-13T11:20:36.286Z,101103.16
2022-10-13T11:25:47.181Z,101102.19
2022-10-13T11:30:52.714Z,101088.00
2022-10-13T11:35:54.348Z,101087.78
2022-10-13T11:41:12.228Z,101084.16
2022-10-13T11:46:26.104Z,101076.97
2022-10-13T11:51:49.314Z,101071.47
2022-10-13T11:56:53.159Z,101065.22
2022-10-13T12:01:59.034Z,101060.56
2022-10-13T12:07:02.213Z,101057.47
2022-10-13T12:12:15.128Z,101042.63
2022-10-13T12:17:27.551Z,101036.75
2022-10-13T12:22:29.682Z,101026.47
2022-10-13T12:27:32.768Z,101022.97
2022-10-13T12:32:35.901Z,101013.16
2022-10-13T12:37:37.599Z,101022.19
2022-10-13T12:42:39.264Z,101022.63
2022-10-13T12:47:43.787Z,101021.44
2022-10-13T12:52:45.417Z,101022.78
2022-10-13T12:57:48.152Z,101014.00
2022-10-13T13:03:00.626Z,101018.09
2022-10-13T13:08:03.876Z,101016.28
2022-10-13T13:13:15.209Z,101008.84
2022-10-13T13:18:23.040Z,101010.13
2022-10-13T13:23:24.739Z,101015.75
2022-10-13T13:28:30.770Z,101012.50
2022-10-13T13:33:33.224Z,101008.94
2022-10-13T13:38:36.509Z,101015.78
2022-10-13T13:43:38.687Z,101004.34
2022-10-13T13:48:40.386Z,100997.19
2022-10-13T13:53:42.087Z,100998.66
2022-10-13T13:58:44.468Z,100992.00
2022-10-13T14:03:46.080Z,100993.06
2022-10-13T14:08:50.434Z,100988.41
2022-10-13T14:13:52.104Z,100985.13
2022-10-13T14:19:02.070Z,100981.50
2022-10-13T14:24:04.239Z,100981.75
2022-10-13T14:29:05.907Z,100978.31
2022-10-13T14:34:07.612Z,100973.16
2022-10-13T14:39:09.861Z,100974.16
2022-10-13T14:44:13.472Z,100977.84
2022-10-13T14:49:20.039Z,100969.84
2022-10-13T14:54:23.164Z,100970.78
2022-10-13T14:59:24.841Z,100968.16
2022-10-13T15:04:26.454Z,100962.91
2022-10-13T15:09:38.935Z,100956.78
2022-10-13T15:14:50.835Z,100966.34
2022-10-13T15:19:52.521Z,100963.84
2022-10-13T15:24:54.190Z,100967.53
2022-10-13T15:29:55.861Z,100963.28
2022-10-13T15:34:57.541Z,100967.78
2022-10-13T15:40:00.052Z,100962.75
2022-10-13T15:45:09.985Z,100957.56
2022-10-13T15:50:12.615Z,100955.00
2022-10-13T15:55:14.351Z,100952.50
2022-10-13T16:00:16.402Z,100942.97
2022-10-13T16:05:18.271Z,100950.94
2022-10-13T16:10:19.900Z,100948.47
2022-10-13T16:15:21.538Z,100938.13
2022-10-13T16:20:23.196Z,100948.03
2022-10-13T16:25:24.823Z,100943.81
2022-10-13T16:30:26.951Z,100958.88
2022-10-13T16:35:28.598Z,100946.78
2022-10-13T16:40:30.902Z,100946.94
2022-10-13T16:45:55.106Z,100948.78
2022-10-13T16:50:54.366Z,100948.91
2022-10-13T16:55:57.784Z,100950.75
2022-10-13T17:01:09.183Z,100943.81
2022-10-13T17:06:11.423Z,100946.56
2022-10-13T17:11:21.232Z,100949.25
2022-10-13T17:16:22.969Z,100945.84
2022-10-13T17:21:24.679Z,100949.41
2022-10-13T17:26:26.338Z,100958.25
2022-10-13T17:31:27.989Z,100955.69
2022-10-13T17:36:31.606Z,100958.38
2022-10-13T17:41:33.428Z,100962.78
2022-10-13T17:46:37.918Z,100968.09
2022-10-13T17:51:40.859Z,100974.22
2022-10-13T17:56:42.484Z,100961.09
2022-10-13T18:01:44.471Z,100961.16
2022-10-13T18:06:46.198Z,100962.06
2022-10-13T18:11:51.067Z,100954.22
2022-10-13T18:16:53.231Z,100958.59
2022-10-13T18:21:54.924Z,100947.25
2022-10-13T18:26:56.542Z,100953.41
2022-10-13T18:31:58.557Z,100956.06
2022-10-13T18:37:00.194Z,100961.34
2022-10-13T18:42:01.828Z,100965.75
2022-10-13T18:47:08.945Z,100958.78
2022-10-13T18:52:10.615Z,100958.81
2022-10-13T18:57:14.351Z,100950.94
2022-10-13T19:02:15.980Z,100952.69
2022-10-13T19:07:17.653Z,100954.47
2022-10-13T19:12:19.291Z,100955.34
2022-10-13T19:17:21.111Z,100951.84
2022-10-13T19:22:23.077Z,100948.38
2022-10-13T19:27:24.802Z,100950.09
2022-10-13T19:32:26.487Z,100951.00
2022-10-13T19:37:28.115Z,100952.72
2022-10-13T19:42:29.746Z,100952.75
2022-10-13T19:47:32.716Z,100961.47
2022-10-13T19:52:34.366Z,100957.13
2022-10-13T19:57:36.020Z,100957.09
2022-10-13T20:02:37.669Z,100968.44
2022-10-13T20:07:39.343Z,100970.19
2022-10-13T20:12:41.053Z,100966.72
2022-10-13T20:17:42.683Z,100964.94
2022-10-13T20:22:44.365Z,100972.81
2022-10-13T20:27:46.658Z,100968.44
2022-10-13T20:32:48.340Z,100971.06
2022-10-13T20:37:50.002Z,100971.91
2022-10-13T20:42:54.638Z,100971.91
2022-10-13T20:47:56.284Z,100969.28
2022-10-13T20:52:57.946Z,100974.53
2022-10-13T20:57:59.559Z,100972.75
2022-10-13T21:03:02.294Z,100981.50
2022-10-13T21:08:04.115Z,100984.09
2022-10-13T21:13:05.960Z,100985.84
2022-10-13T21:18:07.846Z,100980.59
2022-10-13T21:23:10.454Z,100976.22
2022-10-13T21:28:12.096Z,100971.00
2022-10-13T21:33:13.706Z,100966.63
2022-10-13T21:38:15.355Z,100961.38
2022-10-13T21:43:20.730Z,100957.88
2022-10-13T21:48:22.384Z,100961.38
2022-10-13T21:53:24.059Z,100960.50
2022-10-13T21:58:25.679Z,100953.50
2022-10-13T22:03:27.321Z,100958.75
2022-10-13T22:08:38.344Z,100960.50
2022-10-13T22:13:47.644Z,100950.91
2022-10-13T22:18:53.191Z,100945.66
2022-10-13T22:23:59.593Z,100946.53
2022-10-13T22:29:02.246Z,100947.41
2022-10-13T22:34:04.147Z,100948.28
2022-10-13T22:39:05.870Z,100958.72
2022-10-13T22:44:07.524Z,100950.88
2022-10-13T22:49:09.270Z,100946.50
2022-10-13T22:54:10.941Z,100947.38
2022-10-13T22:59:13.696Z,100941.28
2022-10-13T23:04:15.365Z,100938.66
2022-10-13T23:09:17.030Z,100929.06
2022-10-13T23:14:18.718Z,100922.94
2022-10-13T23:19:20.457Z,100934.28
2022-10-13T23:24:22.091Z,100931.66
2022-10-13T23:29:23.803Z,100934.28
2022-10-13T23:34:25.638Z,100922.06
2022-10-13T23:39:27.393Z,100928.19
2022-10-13T23:44:29.926Z,100924.69
2022-10-13T23:49:32.099Z,100915.09
2022-10-13T23:54:33.815Z,100916.84
2022-10-13T23:59:35.475Z,100917.72
